createdAt,value
2023-01-04T00:01:54.282Z,99751.94
2023-01-04T00:03:58.474Z,99754.59
2023-01-04T00:06:05.028Z,99751.22
2023-01-04T00:08:08.934Z,99750.38
2023-01-04T00:10:14.759Z,99756.66
2023-01-04T00:12:21.661Z,99761.97
2023-01-04T00:14:25.692Z,99747.03
2023-01-04T00:16:31.514Z,99757.66
2023-01-04T00:18:36.688Z,99764.06
2023-01-04T00:20:40.953Z,99757.06
2023-01-04T00:22:45.773Z,99767.69
2023-01-04T00:24:50.801Z,99766.97
2023-01-04T00:26:56.676Z,99760.69
2023-01-04T00:29:02.683Z,99773.94
2023-01-04T00:31:08.557Z,99767.81
2023-01-04T00:33:14.465Z,99778.56
2023-01-04T00:35:44.158Z,99763.63
2023-01-04T00:37:51.671Z,99761.94
2023-01-04T00:39:57.178Z,99769.19
2023-01-04T00:42:07.667Z,99738.44
2023-01-04T00:44:13.705Z,99765.81
2023-01-04T00:46:20.404Z,99764.25
2023-01-04T00:48:24.897Z,99780.44
2023-01-04T00:50:29.303Z,99769.25
2023-01-04T00:52:34.983Z,99780.84
2023-01-04T00:54:41.688Z,99782.78
2023-01-04T00:56:48.273Z,99784.75
2023-01-04T00:58:57.414Z,99783.19
2023-01-04T01:01:10.713Z,99797.41
2023-01-04T01:03:15.644Z,99789.59
2023-01-04T01:05:22.179Z,99781.75
2023-01-04T01:07:28.070Z,99797.81
2023-01-04T01:09:35.234Z,99802.38
2023-01-04T01:11:40.509Z,99814.81
2023-01-04T01:13:46.806Z,99797.91
2023-01-04T01:15:52.511Z,99795.38
2023-01-04T01:17:57.237Z,99808.66
2023-01-04T01:20:02.597Z,99814.09
2023-01-04T01:22:11.268Z,99820.50
2023-01-04T01:24:18.180Z,99806.53
2023-01-04T01:26:26.784Z,99815.72
2023-01-04T01:28:32.552Z,99824.63
2023-01-04T01:30:41.909Z,99807.28
2023-01-04T01:32:49.267Z,99824.16
2023-01-04T01:34:53.977Z,99811.91
2023-01-04T01:36:57.753Z,99810.34
2023-01-04T01:39:01.889Z,99802.47
2023-01-04T01:41:05.884Z,99811.56
2023-01-04T01:43:18.955Z,99803.72
2023-01-04T01:45:34.174Z,99817.22
2023-01-04T01:47:43.228Z,99813.00
2023-01-04T01:49:55.307Z,99822.06
2023-01-04T01:52:03.707Z,99819.66
2023-01-04T01:54:13.647Z,99824.28
2023-01-04T01:56:20.998Z,99839.44
2023-01-04T01:58:34.575Z,99819.19
2023-01-04T02:00:38.277Z,99828.13
2023-01-04T02:02:50.257Z,99820.41
2023-01-04T02:04:57.058Z,99820.53
2023-01-04T02:07:02.996Z,99812.84
2023-01-04T02:09:06.897Z,99826.94
2023-01-04T02:11:10.848Z,99839.34
2023-01-04T02:13:18.340Z,99853.56
2023-01-04T02:15:24.896Z,99854.56
2023-01-04T02:17:37.623Z,99853.56
2023-01-04T02:20:05.229Z,99843.09
2023-01-04T02:22:32.304Z,99838.66
2023-01-04T02:24:56.004Z,99839.50
2023-01-04T02:27:30.220Z,99860.69
2023-01-04T02:30:06.699Z,99852.88
2023-01-04T02:32:19.141Z,99853.00
2023-01-04T02:34:30.844Z,99853.00
2023-01-04T02:36:38.953Z,99851.31
2023-01-04T02:38:55.954Z,99854.91
2023-01-04T02:41:10.396Z,99866.59
2023-01-04T02:43:39.313Z,99876.38
2023-01-04T02:45:46.274Z,99860.72
2023-01-04T02:48:09.393Z,99865.28
2023-01-04T02:50:38.441Z,99868.19
2023-01-04T02:52:42.143Z,99871.78
2023-01-04T02:54:48.362Z,99865.66
2023-01-04T02:57:06.518Z,99864.81
2023-01-04T02:59:48.764Z,99833.88
2023-01-04T03:02:19.238Z,99849.66
2023-01-04T03:04:57.356Z,99845.31
2023-01-04T03:07:11.766Z,99838.53
2023-01-04T03:09:20.738Z,99852.75
2023-01-04T03:11:46.686Z,99854.69
2023-01-04T03:13:50.788Z,99853.00
2023-01-04T03:16:03.038Z,99844.09
2023-01-04T03:18:20.288Z,99851.31
2023-01-04T03:20:31.655Z,99861.91
2023-01-04T03:23:03.672Z,99851.31
2023-01-04T03:25:28.723Z,99853.94
2023-01-04T03:27:52.961Z,99843.22
2023-01-04T03:30:18.127Z,99859.97
2023-01-04T03:32:46.935Z,99856.16
2023-01-04T03:35:08.953Z,99871.78
2023-01-04T03:37:19.361Z,99866.50
2023-01-04T03:39:57.520Z,99876.25
2023-01-04T03:42:29.167Z,99864.81
2023-01-04T03:44:57.605Z,99885.03
2023-01-04T03:47:25.844Z,99895.50
2023-01-04T03:49:35.485Z,99886.59
2023-01-04T03:51:43.888Z,99896.13
2023-01-04T03:53:57.823Z,99898.53
2023-01-04T03:56:04.220Z,99897.44
2023-01-04T03:58:14.410Z,99906.00
2023-01-04T04:00:22.040Z,99897.06
2023-01-04T04:02:35.326Z,99909.09
2023-01-04T04:04:58.215Z,99905.50
2023-01-04T04:07:22.281Z,99902.72
2023-01-04T04:09:32.461Z,99913.31
2023-01-04T04:11:36.553Z,99917.53
2023-01-04T04:13:42.604Z,99924.66
2023-01-04T04:15:52.785Z,99920.19
2023-01-04T04:17:56.767Z,99920.06
2023-01-04T04:20:01.533Z,99900.53
2023-01-04T04:22:06.080Z,99922.56
2023-01-04T04:24:18.315Z,99918.13
2023-01-04T04:26:25.025Z,99903.06
2023-01-04T04:28:29.290Z,99933.91
2023-01-04T04:30:33.718Z,99937.66
2023-01-04T04:32:38.047Z,99933.31
2023-01-04T04:34:42.505Z,99935.13
2023-01-04T04:36:46.792Z,99948.38
2023-01-04T04:38:51.214Z,99946.94
2023-01-04T04:41:16.255Z,99942.59
2023-01-04T04:43:22.169Z,99943.69
2023-01-04T04:45:26.692Z,99957.06
2023-01-04T04:47:31.107Z,99948.41
2023-01-04T04:49:35.613Z,99946.09
2023-01-04T04:51:40.479Z,99948.16
2023-01-04T04:53:48.633Z,99947.44
2023-01-04T04:55:53.489Z,99949.47
2023-01-04T04:57:58.268Z,99952.34
2023-01-04T05:00:04.600Z,99960.41
2023-01-04T05:02:09.611Z,99959.78
2023-01-04T05:04:17.088Z,99957.25
2023-01-04T05:06:21.786Z,99975.22
2023-01-04T05:08:26.015Z,99979.78
2023-01-04T05:10:30.459Z,99970.13
2023-01-04T05:13:06.971Z,99972.69
2023-01-04T05:15:13.046Z,99976.19
2023-01-04T05:17:17.765Z,99970.03
2023-01-04T05:19:21.884Z,99986.78
2023-01-04T05:21:26.199Z,99985.94
2023-01-04T05:23:30.312Z,99987.03
2023-01-04T05:25:34.762Z,99987.03
2023-01-04T05:27:39.344Z,100004.81
2023-01-04T05:30:01.073Z,100001.34
2023-01-04T05:32:08.145Z,100004.19
2023-01-04T05:34:17.083Z,100005.19
2023-01-04T05:36:25.133Z,99992.91
2023-01-04T05:38:29.650Z,99993.97
2023-01-04T05:40:36.659Z,100003.00
2023-01-04T05:42:42.035Z,100008.41
2023-01-04T05:44:50.102Z,100013.81
2023-01-04T05:46:58.058Z,100020.19
2023-01-04T05:49:06.027Z,100007.06
2023-01-04T05:51:12.782Z,100031.97
2023-01-04T05:53:21.447Z,100037.41
2023-01-04T05:55:31.093Z,100041.88
2023-01-04T05:57:37.029Z,100037.41
2023-01-04T05:59:42.555Z,100050.63
2023-01-04T06:01:53.113Z,100054.97
2023-01-04T06:03:58.177Z,100045.22
2023-01-04T06:06:03.267Z,100067.25
2023-01-04T06:08:07.935Z,100054.97
2023-01-04T06:10:14.773Z,100042.69
2023-01-04T06:12:17.849Z,100060.28
2023-01-04T06:14:22.543Z,100062.19
2023-01-04T06:16:27.845Z,100058.81
2023-01-04T06:18:33.645Z,100054.47
2023-01-04T06:20:38.137Z,100059.78
2023-01-04T06:22:43.840Z,100058.06
2023-01-04T06:24:48.660Z,100066.97
2023-01-04T06:26:53.895Z,100061.78
2023-01-04T06:29:02.730Z,100065.38
2023-01-04T06:31:09.114Z,100060.22
2023-01-04T06:33:13.632Z,100058.56
2023-01-04T06:35:17.639Z,100056.84
2023-01-04T06:37:22.276Z,100055.03
2023-01-04T06:39:29.612Z,100064.06
2023-01-04T06:41:34.665Z,100073.94
2023-01-04T06:43:39.413Z,100066.81
2023-01-04T06:45:44.104Z,100062.59
2023-01-04T06:47:49.337Z,100069.69
2023-01-04T06:49:52.965Z,100070.66
2023-01-04T06:51:57.162Z,100072.47
2023-01-04T06:54:01.147Z,100076.06
2023-01-04T06:56:08.418Z,100072.69
2023-01-04T06:58:12.583Z,100086.88
2023-01-04T07:00:17.429Z,100096.72
2023-01-04T07:02:21.490Z,100094.06
2023-01-04T07:04:26.193Z,100090.38
2023-01-04T07:06:30.504Z,100081.59
2023-01-04T07:08:34.361Z,100090.25
2023-01-04T07:10:38.680Z,100091.94
2023-01-04T07:12:43.705Z,100100.63
2023-01-04T07:14:47.477Z,100095.22
2023-01-04T07:16:55.512Z,100095.09
2023-01-04T07:18:59.381Z,100098.59
2023-01-04T07:21:03.328Z,100105.69
2023-01-04T07:23:08.118Z,100091.50
2023-01-04T07:25:12.189Z,100097.00
2023-01-04T07:27:16.218Z,100097.00
2023-01-04T07:29:22.691Z,100107.59
2023-01-04T07:31:26.604Z,100123.47
2023-01-04T07:33:30.874Z,100126.25
2023-01-04T07:35:35.064Z,100129.75
2023-01-04T07:37:38.775Z,100127.81
2023-01-04T07:39:44.120Z,100130.47
2023-01-04T07:41:49.292Z,100126.97
2023-01-04T07:43:56.492Z,100140.22
2023-01-04T07:46:01.981Z,100131.41
2023-01-04T07:48:06.988Z,100136.72
2023-01-04T07:50:13.075Z,100140.22
2023-01-04T07:52:18.142Z,100136.72
2023-01-04T07:54:22.498Z,100129.75
2023-01-04T07:56:26.263Z,100143.94
2023-01-04T07:58:34.531Z,100146.59
2023-01-04T08:00:38.514Z,100144.88
2023-01-04T08:02:44.356Z,100134.41
2023-01-04T08:04:50.531Z,100146.81
2023-01-04T08:06:55.024Z,100148.72
2023-01-04T08:09:00.142Z,100138.13
2023-01-04T08:11:04.675Z,100141.72
2023-01-04T08:13:08.666Z,100143.41
2023-01-04T08:15:15.261Z,100157.59
2023-01-04T08:17:19.648Z,100167.25
2023-01-04T08:19:25.319Z,100165.44
2023-01-04T08:21:30.791Z,100149.53
2023-01-04T08:23:35.885Z,100157.41
2023-01-04T08:25:39.621Z,100161.72
2023-01-04T08:27:43.844Z,100159.94
2023-01-04T08:29:47.495Z,100178.34
2023-01-04T08:31:51.685Z,100178.13
2023-01-04T08:33:56.211Z,100176.41
2023-01-04T08:36:11.348Z,100192.66
2023-01-04T08:38:57.582Z,100202.72
2023-01-04T08:40:59.820Z,100175.84
2023-01-04T08:43:01.764Z,100214.06
2023-01-04T08:45:06.909Z,100185.19
2023-01-04T08:47:11.143Z,100212.69
2023-01-04T08:49:15.176Z,100206.69
2023-01-04T08:51:20.400Z,100205.94
2023-01-04T08:53:24.114Z,100225.22
2023-01-04T08:55:27.686Z,100220.53
2023-01-04T08:57:31.253Z,100220.34
2023-01-04T08:59:34.793Z,100234.28
2023-01-04T09:01:39.391Z,100227.94
2023-01-04T09:03:43.205Z,100240.94
2023-01-04T09:05:47.334Z,100254.81
2023-01-04T09:07:52.422Z,100255.41
2023-01-04T09:09:57.508Z,100256.06
2023-01-04T09:12:01.105Z,100270.03
2023-01-04T09:14:08.447Z,100259.22
2023-01-04T09:16:14.343Z,100254.66
2023-01-04T09:18:33.587Z,100262.41
2023-01-04T09:20:39.003Z,100278.16
2023-01-04T09:22:42.504Z,100276.47
2023-01-04T09:24:47.493Z,100277.31
2023-01-04T09:26:51.443Z,100283.59
2023-01-04T09:28:56.820Z,100275.63
2023-01-04T09:31:00.473Z,100289.59
2023-01-04T09:33:04.087Z,100297.31
2023-01-04T09:35:08.435Z,100290.22
2023-01-04T09:37:12.031Z,100281.44
2023-01-04T09:39:22.525Z,100297.31
2023-01-04T09:41:30.497Z,100301.03
2023-01-04T09:43:39.629Z,100308.13
2023-01-04T09:45:43.690Z,100311.84
2023-01-04T09:47:53.324Z,100308.34
2023-01-04T09:50:01.529Z,100311.94
2023-01-04T09:52:14.784Z,100309.31
2023-01-04T09:54:20.850Z,100303.06
2023-01-04T09:56:31.299Z,100309.94
2023-01-04T09:58:38.034Z,100302.84
2023-01-04T10:00:46.251Z,100304.53
2023-01-04T10:02:54.316Z,100301.88
2023-01-04T10:05:02.271Z,100313.19
2023-01-04T10:07:05.904Z,100306.00
2023-01-04T10:09:13.710Z,100297.94
2023-01-04T10:11:28.911Z,100299.75
2023-01-04T10:13:50.637Z,100295.19
2023-01-04T10:15:58.702Z,100295.94
2023-01-04T10:21:29.548Z,100310.53
2023-01-04T10:23:29.426Z,100305.13
2023-01-04T10:25:40.590Z,100305.03
2023-01-04T10:27:52.097Z,100315.50
2023-01-04T10:30:07.548Z,100301.41
2023-01-04T10:32:20.639Z,100313.72
2023-01-04T10:34:27.331Z,100309.13
2023-01-04T10:36:32.871Z,100320.56
2023-01-04T10:38:41.071Z,100331.91
2023-01-04T10:40:48.747Z,100354.91
2023-01-04T10:43:01.142Z,100352.16
2023-01-04T10:45:15.319Z,100346.63
2023-01-04T10:47:24.986Z,100367.72
2023-01-04T10:49:37.132Z,100369.28
2023-01-04T10:51:48.604Z,100363.78
2023-01-04T10:53:57.177Z,100374.78
2023-01-04T10:56:26.245Z,100384.88
2023-01-04T10:58:37.565Z,100387.81
2023-01-04T11:00:46.925Z,100388.34
2023-01-04T11:03:00.878Z,100395.94
2023-01-04T11:05:19.610Z,100407.28
2023-01-04T11:07:28.375Z,100385.22
2023-01-04T11:09:36.855Z,100395.72
2023-01-04T11:11:45.987Z,100404.41
2023-01-04T11:13:51.181Z,100405.47
2023-01-04T11:15:56.897Z,100391.69
2023-01-04T11:18:04.283Z,100396.38
2023-01-04T11:20:08.960Z,100397.66
2023-01-04T11:22:18.215Z,100397.88
2023-01-04T11:24:32.008Z,100404.13
2023-01-04T11:26:42.053Z,100403.19
2023-01-04T11:28:50.963Z,100399.47
2023-01-04T11:31:04.930Z,100408.78
2023-01-04T11:33:15.046Z,100396.88
2023-01-04T11:35:42.164Z,100421.38
2023-01-04T11:37:46.770Z,100401.88
2023-01-04T11:39:50.387Z,100408.97
2023-01-04T11:42:02.900Z,100422.34
2023-01-04T11:44:08.839Z,100403.06
2023-01-04T11:46:25.268Z,100401.34
2023-01-04T11:48:38.172Z,100404.97
2023-01-04T11:50:43.102Z,100407.38
2023-01-04T11:52:47.757Z,100419.69
2023-01-04T11:54:51.902Z,100404.00
2023-01-04T11:57:05.896Z,100418.97
2023-01-04T11:59:24.586Z,100412.69
2023-01-04T12:01:30.324Z,100410.03
2023-01-04T12:03:37.933Z,100409.06
2023-01-04T12:05:41.883Z,100414.38
2023-01-04T12:07:46.621Z,100404.84
2023-01-04T12:09:50.224Z,100414.84
2023-01-04T12:11:56.320Z,100403.59
2023-01-04T12:14:01.032Z,100416.84
2023-01-04T12:16:14.573Z,100415.03
2023-01-04T12:18:26.709Z,100411.44
2023-01-04T12:20:31.306Z,100426.63
2023-01-04T12:22:38.434Z,100425.63
2023-01-04T12:24:45.848Z,100439.53
2023-01-04T12:26:50.840Z,100443.88
2023-01-04T12:29:32.302Z,100431.56
2023-01-04T12:31:35.869Z,100434.34
2023-01-04T12:33:41.391Z,100424.47
2023-01-04T12:36:07.092Z,100421.81
2023-01-04T12:38:11.515Z,100420.75
2023-01-04T12:40:48.002Z,100422.56
2023-01-04T12:43:21.258Z,100437.50
2023-01-04T12:45:24.838Z,100426.03
2023-01-04T12:47:59.664Z,100418.97
2023-01-04T12:50:12.695Z,100428.59
2023-01-04T12:53:28.937Z,100424.75
2023-01-04T12:55:23.691Z,100434.81
2023-01-04T12:57:37.232Z,100435.44
2023-01-04T12:59:55.006Z,100443.28
2023-01-04T13:02:18.861Z,100442.34
2023-01-04T13:04:41.499Z,100451.84
2023-01-04T13:06:47.824Z,100455.47
2023-01-04T13:08:54.175Z,100470.31
2023-01-04T13:10:58.965Z,100460.56
2023-01-04T13:13:20.079Z,100449.94
2023-01-04T13:15:32.347Z,100445.38
2023-01-04T13:17:41.137Z,100453.31
2023-01-04T13:19:45.563Z,100439.22
2023-01-04T13:21:52.809Z,100445.28
2023-01-04T13:23:58.921Z,100454.78
2023-01-04T13:26:38.067Z,100455.66
2023-01-04T13:28:42.336Z,100456.50
2023-01-04T13:30:47.789Z,100452.13
2023-01-04T13:33:24.284Z,100466.50
2023-01-04T13:35:15.939Z,100479.84
2023-01-04T13:37:28.599Z,100477.28
2023-01-04T13:39:36.229Z,100491.53
2023-01-04T13:41:39.829Z,100509.22
2023-01-04T13:43:58.955Z,100506.81
2023-01-04T13:46:16.352Z,100512.34
2023-01-04T13:48:23.303Z,100531.84
2023-01-04T13:50:32.499Z,100531.84
2023-01-04T13:52:56.485Z,100522.94
2023-01-04T13:55:19.848Z,100502.56
2023-01-04T13:57:24.665Z,100514.88
2023-01-04T13:59:28.135Z,100514.75
2023-01-04T14:01:33.876Z,100520.91
2023-01-04T14:03:43.358Z,100506.69
2023-01-04T14:05:52.867Z,100520.78
2023-01-04T14:07:58.001Z,100527.69
2023-01-04T14:10:02.364Z,100534.69
2023-01-04T14:12:15.163Z,100522.50
2023-01-04T14:14:30.078Z,100545.63
2023-01-04T14:16:33.696Z,100552.94
2023-01-04T14:18:37.439Z,100554.94
2023-01-04T14:20:41.087Z,100557.00
2023-01-04T14:22:53.135Z,100561.53
2023-01-04T14:25:15.570Z,100559.22
2023-01-04T14:27:31.692Z,100577.88
2023-01-04T14:29:35.368Z,100577.88
2023-01-04T14:31:39.208Z,100588.59
2023-01-04T14:33:45.026Z,100584.25
2023-01-04T14:36:03.677Z,100574.59
2023-01-04T14:38:13.298Z,100571.94
2023-01-04T14:40:27.096Z,100578.09
2023-01-04T14:42:32.800Z,100584.25
2023-01-04T14:44:41.458Z,100587.63
2023-01-04T14:46:47.423Z,100591.97
2023-01-04T14:48:51.403Z,100599.81
2023-01-04T14:50:54.895Z,100590.19
2023-01-04T14:52:58.502Z,100585.72
2023-01-04T14:55:05.015Z,100594.41
2023-01-04T14:57:11.333Z,100588.28
2023-01-04T14:59:14.982Z,100601.41
2023-01-04T15:01:18.756Z,100589.09
2023-01-04T15:03:22.418Z,100598.88
2023-01-04T15:05:26.314Z,100594.41
2023-01-04T15:07:36.077Z,100590.91
2023-01-04T15:09:39.975Z,100592.72
2023-01-04T15:11:43.559Z,100614.66
2023-01-04T15:13:48.461Z,100612.97
2023-01-04T15:15:52.106Z,100617.31
2023-01-04T15:17:55.644Z,100609.38
2023-01-04T15:19:59.192Z,100628.78
2023-01-04T15:22:02.824Z,100627.09
2023-01-04T15:24:06.968Z,100615.44
2023-01-04T15:26:13.101Z,100633.00
2023-01-04T15:28:19.395Z,100625.06
2023-01-04T15:30:24.991Z,100625.91
2023-01-04T15:32:28.466Z,100626.88
2023-01-04T15:34:31.918Z,100631.34
2023-01-04T15:36:38.910Z,100627.81
2023-01-04T15:38:42.869Z,100635.03
2023-01-04T15:40:46.350Z,100606.00
2023-01-04T15:43:01.131Z,100629.84
2023-01-04T15:45:05.009Z,100627.31
2023-01-04T15:47:10.201Z,100624.72
2023-01-04T15:49:17.438Z,100621.25
2023-01-04T15:51:21.504Z,100640.84
2023-01-04T15:53:24.984Z,100628.53
2023-01-04T15:55:34.136Z,100633.13
2023-01-04T15:57:43.644Z,100649.03
2023-01-04T15:59:48.187Z,100642.84
2023-01-04T16:01:52.055Z,100649.97
2023-01-04T16:03:57.196Z,100654.44
2023-01-04T16:06:06.038Z,100648.25
2023-01-04T16:08:09.682Z,100659.91
2023-01-04T16:10:13.202Z,100647.53
2023-01-04T16:12:34.364Z,100654.63
2023-01-04T16:14:38.032Z,100654.72
2023-01-04T16:16:41.604Z,100644.22
2023-01-04T16:18:47.647Z,100647.94
2023-01-04T16:20:52.770Z,100648.03
2023-01-04T16:22:56.335Z,100640.19
2023-01-04T16:25:15.275Z,100645.50
2023-01-04T16:27:18.991Z,100643.69
2023-01-04T16:29:23.943Z,100645.50
2023-01-04T16:31:27.737Z,100643.78
2023-01-04T16:33:32.379Z,100643.69
2023-01-04T16:35:35.808Z,100639.38
2023-01-04T16:37:43.103Z,100633.38
2023-01-04T16:40:05.760Z,100636.97
2023-01-04T16:42:11.103Z,100641.44
2023-01-04T16:44:14.889Z,100643.25
2023-01-04T16:46:24.362Z,100637.09
2023-01-04T16:48:27.903Z,100639.72
2023-01-04T16:50:31.477Z,100632.72
2023-01-04T16:52:35.063Z,100649.50
2023-01-04T16:54:40.325Z,100644.41
2023-01-04T16:56:44.899Z,100655.75
2023-01-04T16:58:48.718Z,100656.78
2023-01-04T17:00:52.396Z,100660.31
2023-01-04T17:02:56.138Z,100657.72
2023-01-04T17:05:01.130Z,100659.44
2023-01-04T17:07:05.067Z,100663.91
2023-01-04T17:09:11.797Z,100662.19
2023-01-04T17:12:04.901Z,100660.50
2023-01-04T17:13:41.396Z,100661.47
2023-01-04T17:15:45.457Z,100659.75
2023-01-04T17:17:49.345Z,100666.00
2023-01-04T17:19:52.940Z,100674.06
2023-01-04T17:21:56.474Z,100675.94
2023-01-04T17:24:00.355Z,100679.56
2023-01-04T17:26:06.300Z,100687.59
2023-01-04T17:28:11.344Z,100700.81
2023-01-04T17:30:15.432Z,100685.81
2023-01-04T17:32:19.122Z,100680.72
2023-01-04T17:34:23.486Z,100681.75
2023-01-04T17:36:27.379Z,100683.75
2023-01-04T17:38:31.193Z,100691.81
2023-01-04T17:40:36.158Z,100687.44
2023-01-04T17:42:41.293Z,100690.09
2023-01-04T17:44:48.150Z,100685.66
2023-01-04T17:46:51.739Z,100695.28
2023-01-04T17:49:21.068Z,100697.94
2023-01-04T17:51:21.441Z,100692.00
2023-01-04T17:53:25.035Z,100689.47
2023-01-04T17:55:28.813Z,100692.41
2023-01-04T17:57:35.178Z,100704.03
2023-01-04T17:59:38.783Z,100704.25
2023-01-04T18:01:43.921Z,100713.22
2023-01-04T18:03:49.597Z,100728.38
2023-01-04T18:06:07.133Z,100719.66
2023-01-04T18:08:18.813Z,100714.56
2023-01-04T18:10:41.006Z,100712.03
2023-01-04T18:12:46.144Z,100727.81
2023-01-04T18:14:50.229Z,100717.97
2023-01-04T18:16:58.987Z,100717.84
2023-01-04T18:19:03.398Z,100735.34
2023-01-04T18:21:27.057Z,100729.88
2023-01-04T18:23:33.595Z,100731.56
2023-01-04T18:25:37.673Z,100723.53
2023-01-04T18:27:41.371Z,100728.06
2023-01-04T18:29:45.092Z,100726.25
2023-01-04T18:31:50.874Z,100728.91
2023-01-04T18:33:57.689Z,100733.47
2023-01-04T18:36:04.720Z,100727.22
2023-01-04T18:38:09.336Z,100732.59
2023-01-04T18:40:14.965Z,100735.34
2023-01-04T18:42:20.825Z,100733.69
2023-01-04T18:44:34.811Z,100740.84
2023-01-04T18:46:39.865Z,100739.34
2023-01-04T18:48:43.596Z,100739.44
2023-01-04T18:50:49.882Z,100746.63
2023-01-04T18:52:53.567Z,100746.72
2023-01-04T18:54:57.019Z,100736.34
2023-01-04T18:57:01.418Z,100765.34
2023-01-04T18:59:05.129Z,100783.97
2023-01-04T19:01:10.521Z,100782.28
2023-01-04T19:03:18.394Z,100785.03
2023-01-04T19:05:22.915Z,100792.03
2023-01-04T19:07:28.368Z,100788.59
2023-01-04T19:09:32.342Z,100793.16
2023-01-04T19:11:37.170Z,100789.69
2023-01-04T19:13:41.114Z,100785.31
2023-01-04T19:15:47.909Z,100789.75
2023-01-04T19:17:52.847Z,100790.72
2023-01-04T19:19:56.993Z,100787.97
2023-01-04T19:22:00.841Z,100798.56
2023-01-04T19:24:06.707Z,100800.34
2023-01-04T19:26:11.457Z,100811.78
2023-01-04T19:28:15.936Z,100827.47
2023-01-04T19:30:20.045Z,100816.88
2023-01-04T19:32:26.218Z,100819.53
2023-01-04T19:34:33.852Z,100815.84
2023-01-04T19:36:38.297Z,100828.25
2023-01-04T19:38:43.620Z,100821.25
2023-01-04T19:40:56.867Z,100821.34
2023-01-04T19:43:01.447Z,100821.44
2023-01-04T19:45:08.634Z,100818.03
2023-01-04T19:47:13.913Z,100818.22
2023-01-04T19:49:19.005Z,100821.91
2023-01-04T19:51:22.655Z,100833.53
2023-01-04T19:53:29.256Z,100843.34
2023-01-04T19:55:33.437Z,100839.09
2023-01-04T19:57:41.016Z,100843.53
2023-01-04T19:59:44.665Z,100854.13
2023-01-04T20:01:48.867Z,100853.28
2023-01-04T20:03:54.412Z,100869.16
2023-01-04T20:06:04.367Z,100865.63
2023-01-04T20:08:08.267Z,100863.00
2023-01-04T20:10:14.596Z,100868.28
2023-01-04T20:12:19.029Z,100868.28
2023-01-04T20:14:26.750Z,100876.16
2023-01-04T20:16:30.431Z,100875.28
2023-01-04T20:18:35.212Z,100877.00
2023-01-04T20:20:42.071Z,100870.94
2023-01-04T20:22:45.813Z,100871.03
2023-01-04T20:24:49.543Z,100878.22
2023-01-04T20:26:54.716Z,100884.53
2023-01-04T20:28:59.313Z,100889.84
2023-01-04T20:31:08.320Z,100885.56
2023-01-04T20:33:13.379Z,100888.31
2023-01-04T20:35:20.201Z,100900.63
2023-01-04T20:37:24.006Z,100898.81
2023-01-04T20:39:28.282Z,100899.59
2023-01-04T20:41:33.261Z,100898.72
2023-01-04T20:43:37.654Z,100903.16
2023-01-04T20:45:46.763Z,100903.34
2023-01-04T20:47:54.374Z,100901.84
2023-01-04T20:50:01.230Z,100902.75
2023-01-04T20:52:06.906Z,100908.25
2023-01-04T20:54:11.545Z,100905.66
2023-01-04T20:56:17.448Z,100910.22
2023-01-04T20:58:22.652Z,100924.28
2023-01-04T21:00:26.941Z,100932.13
2023-01-04T21:02:37.758Z,100934.75
2023-01-04T21:04:47.182Z,100926.66
2023-01-04T21:06:51.346Z,100941.56
2023-01-04T21:08:55.755Z,100926.75
2023-01-04T21:10:59.726Z,100937.34
2023-01-04T21:13:03.909Z,100943.56
2023-01-04T21:15:08.227Z,100953.38
2023-01-04T21:17:11.861Z,100956.03
2023-01-04T21:19:16.390Z,100974.53
2023-01-04T21:21:21.745Z,100971.88
2023-01-04T21:23:28.256Z,100981.53
2023-01-04T21:25:32.761Z,100996.56
2023-01-04T21:27:37.105Z,100997.50
2023-01-04T21:29:41.195Z,101001.88
2023-01-04T21:31:44.764Z,100998.25
2023-01-04T21:33:49.012Z,101003.63
2023-01-04T21:35:52.894Z,100987.75
2023-01-04T21:37:57.871Z,100996.66
2023-01-04T21:40:01.518Z,100997.50
2023-01-04T21:42:05.199Z,101000.16
2023-01-04T21:44:09.605Z,101016.13
2023-01-04T21:46:16.827Z,101020.53
2023-01-04T21:48:20.750Z,101023.19
2023-01-04T21:50:24.408Z,101023.19
2023-01-04T21:52:29.312Z,101024.97
2023-01-04T21:54:35.683Z,101032.06
2023-01-04T21:56:40.301Z,101015.34
2023-01-04T21:58:44.984Z,101017.88
2023-01-04T22:00:48.764Z,101018.84
2023-01-04T22:02:53.567Z,101037.38
2023-01-04T22:04:58.438Z,101023.34
2023-01-04T22:07:02.436Z,101018.84
2023-01-04T22:09:07.408Z,101027.72
2023-01-04T22:11:12.676Z,101027.81
2023-01-04T22:13:16.287Z,101033.19
2023-01-04T22:15:19.805Z,101023.34
2023-01-04T22:17:23.567Z,101031.38
2023-01-04T22:19:27.518Z,101034.97
2023-01-04T22:21:31.574Z,101032.31
2023-01-04T22:23:35.344Z,101037.69
2023-01-04T22:25:39.711Z,101039.41
2023-01-04T22:27:45.794Z,101048.09
2023-01-04T22:29:50.038Z,101047.25
2023-01-04T22:31:53.906Z,101050.66
2023-01-04T22:33:57.916Z,101056.81
2023-01-04T22:36:05.573Z,101069.13
2023-01-04T22:38:10.108Z,101073.53
2023-01-04T22:40:14.544Z,101075.34
2023-01-04T22:42:18.538Z,101077.78
2023-01-04T22:44:23.464Z,101077.78
2023-01-04T22:46:29.525Z,101077.78
2023-01-04T22:48:34.129Z,101080.34
2023-01-04T22:50:39.896Z,101089.16
2023-01-04T22:52:49.012Z,101088.19
2023-01-04T22:54:54.482Z,101092.56
2023-01-04T22:56:58.114Z,101093.50
2023-01-04T22:59:01.699Z,101103.06
2023-01-04T23:01:08.497Z,101103.94
2023-01-04T23:03:13.059Z,101107.31
2023-01-04T23:05:16.604Z,101114.34
2023-01-04T23:07:21.032Z,101110.75
2023-01-04T23:09:24.757Z,101116.88
2023-01-04T23:11:30.099Z,101116.81
2023-01-04T23:13:33.694Z,101117.59
2023-01-04T23:15:38.277Z,101123.72
2023-01-04T23:17:43.707Z,101119.25
2023-01-04T23:19:47.469Z,101121.91
2023-01-04T23:21:51.661Z,101125.34
2023-01-04T23:23:55.698Z,101135.00
2023-01-04T23:26:04.432Z,101140.28
2023-01-04T23:28:08.570Z,101134.03
2023-01-04T23:30:14.178Z,101140.19
2023-01-04T23:32:18.000Z,101133.97
2023-01-04T23:34:24.879Z,101134.81
2023-01-04T23:36:30.839Z,101141.81
2023-01-04T23:38:34.543Z,101142.66
2023-01-04T23:40:38.491Z,101136.44
2023-01-04T23:42:41.989Z,101132.00
2023-01-04T23:44:46.518Z,101134.63
2023-01-04T23:46:54.430Z,101132.78
2023-01-04T23:48:57.919Z,101129.16
2023-01-04T23:51:02.973Z,101129.16
2023-01-04T23:53:07.421Z,101133.63
2023-01-04T23:55:11.358Z,101129.16
2023-01-04T23:57:15.479Z,101137.19
2023-01-04T23:59:19.883Z,101126.69
